Terminal Aerodrome Forecast
Issued by NWS

Current Version | Previous Version | Graphics & Text | Print | Product List | Glossary On
Versions: 1 2 3 4 5 6 7 8 9 10 11 12 13 14 15 16 17 18 19 20 21 22 23 24 25 26 27 28
036
FTUS41 KPBZ 301746
TAFMGW
TAF
KMGW 301746Z 3018/3118 23005KT P6SM VCTS SCT030CB BKN040
      TEMPO 3018/3020 4SM -TSRA BKN030CB
     FM302200 22003KT P6SM SCT070=

USA.gov is the U.S. government's official web portal to all federal, state and local government web resources and services.